createdAt,value
2019-01-29T00:00:55.121Z,0.50
2019-01-29T00:03:24.605Z,0.50
2019-01-29T00:05:54.178Z,0.50
2019-01-29T00:08:23.981Z,0.50
2019-01-29T00:10:53.397Z,0.50
2019-01-29T00:13:22.887Z,0.50
2019-01-29T00:15:52.357Z,0.50
2019-01-29T00:18:21.805Z,0.50
2019-01-29T00:20:51.291Z,0.50
2019-01-29T00:23:20.757Z,0.60
2019-01-29T00:25:50.217Z,0.50
2019-01-29T00:28:19.631Z,0.60
2019-01-29T00:30:49.194Z,0.60
2019-01-29T00:33:18.621Z,0.60
2019-01-29T00:35:48.069Z,0.60
2019-01-29T00:38:17.497Z,0.60
2019-01-29T00:40:46.991Z,0.60
2019-01-29T00:43:16.425Z,0.70
2019-01-29T00:45:45.914Z,0.80
2019-01-29T00:48:15.521Z,0.70
2019-01-29T00:50:45.080Z,0.70
2019-01-29T00:53:14.493Z,0.70
2019-01-29T00:55:43.957Z,0.70
2019-01-29T00:58:13.625Z,0.70
2019-01-29T01:00:43.082Z,0.60
2019-01-29T01:03:12.512Z,0.70
2019-01-29T01:05:42.300Z,0.70
2019-01-29T01:08:11.757Z,0.80
2019-01-29T01:10:41.204Z,0.70
2019-01-29T01:13:10.668Z,0.60
2019-01-29T01:15:40.166Z,0.80
2019-01-29T01:18:09.700Z,0.70
2019-01-29T01:20:39.188Z,0.70
2019-01-29T01:23:08.653Z,0.70
2019-01-29T01:25:38.133Z,0.70
2019-01-29T01:28:07.610Z,0.70
2019-01-29T01:30:37.067Z,0.70
2019-01-29T01:33:06.552Z,0.80
2019-01-29T01:35:36.017Z,0.80
2019-01-29T01:38:05.518Z,0.80
2019-01-29T01:40:34.936Z,0.70
2019-01-29T01:43:04.382Z,0.60
2019-01-29T01:45:33.860Z,0.50
2019-01-29T01:48:03.320Z,0.50
2019-01-29T01:50:32.765Z,0.40
2019-01-29T01:53:02.281Z,0.30
2019-01-29T01:55:31.830Z,0.20
2019-01-29T01:58:01.286Z,0.30
2019-01-29T02:00:30.748Z,0.10
2019-01-29T02:03:00.180Z,0.00
2019-01-29T02:05:29.618Z,-0.10
2019-01-29T02:07:59.067Z,-0.20
2019-01-29T02:10:30.367Z,-0.30
2019-01-29T02:12:59.780Z,-0.40
2019-01-29T02:15:29.246Z,-0.60
2019-01-29T02:17:58.705Z,-0.60
2019-01-29T02:20:28.192Z,-0.60
2019-01-29T02:22:57.747Z,-0.60
2019-01-29T02:25:27.190Z,-0.70
2019-01-29T02:27:56.634Z,-0.80
2019-01-29T02:30:26.245Z,-0.80
2019-01-29T02:32:55.706Z,-0.90
2019-01-29T02:35:25.150Z,-0.90
2019-01-29T02:37:54.670Z,-0.90
2019-01-29T02:40:26.575Z,-0.90
2019-01-29T02:42:56.105Z,-1.00
2019-01-29T02:45:26.094Z,-1.00
2019-01-29T02:47:55.577Z,-1.00
2019-01-29T02:50:25.021Z,-1.00
2019-01-29T02:52:54.481Z,-0.90
2019-01-29T02:55:23.928Z,-0.80
2019-01-29T02:57:53.353Z,-0.80
2019-01-29T03:00:24.945Z,-0.90
2019-01-29T03:02:54.465Z,-1.00
2019-01-29T03:05:24.036Z,-1.00
2019-01-29T03:07:53.736Z,-1.00
2019-01-29T03:10:26.649Z,-1.00
2019-01-29T03:12:56.088Z,-0.80
2019-01-29T03:15:32.863Z,-0.80
2019-01-29T03:18:02.578Z,-0.80
2019-01-29T03:20:32.046Z,-0.80
2019-01-29T03:23:01.524Z,-0.80
2019-01-29T03:25:30.966Z,-0.80
2019-01-29T03:28:00.401Z,-0.80
2019-01-29T03:30:29.881Z,-0.90
2019-01-29T03:32:59.322Z,-0.80
2019-01-29T03:35:28.833Z,-0.70
2019-01-29T03:37:58.273Z,-0.70
2019-01-29T03:40:28.479Z,-0.50
2019-01-29T03:42:57.915Z,-0.30
2019-01-29T03:45:27.459Z,-0.30
2019-01-29T03:47:56.991Z,-0.30
2019-01-29T03:50:26.521Z,-0.20
2019-01-29T03:52:55.965Z,-0.20
2019-01-29T03:55:25.445Z,-0.20
2019-01-29T03:57:54.878Z,-0.20
2019-01-29T04:00:26.521Z,-0.10
2019-01-29T04:02:56.060Z,0.10
2019-01-29T04:05:25.506Z,0.00
2019-01-29T04:07:54.953Z,-0.10
2019-01-29T04:10:24.444Z,-0.10
2019-01-29T04:12:53.878Z,-0.10
2019-01-29T04:15:23.337Z,-0.10
2019-01-29T04:17:57.921Z,-0.20
2019-01-29T04:20:27.603Z,-0.10
2019-01-29T04:22:57.048Z,-0.20
2019-01-29T04:25:26.514Z,-0.20
2019-01-29T04:27:56.005Z,-0.20
2019-01-29T04:30:25.996Z,-0.30
2019-01-29T04:32:55.478Z,-0.30
2019-01-29T04:35:24.888Z,-0.20
2019-01-29T04:37:54.405Z,-0.20
2019-01-29T04:40:24.095Z,-0.20
2019-01-29T04:42:53.499Z,-0.30
2019-01-29T04:45:22.957Z,-0.20
2019-01-29T04:47:52.446Z,-0.20
2019-01-29T04:50:23.120Z,-0.10
2019-01-29T04:52:53.137Z,-0.10
2019-01-29T04:55:22.624Z,-0.10
2019-01-29T04:57:52.070Z,-0.10
2019-01-29T05:00:26.439Z,-0.10
2019-01-29T05:02:55.986Z,0.00
2019-01-29T05:05:25.436Z,-0.20
2019-01-29T05:07:54.945Z,-0.20
2019-01-29T05:10:24.508Z,-0.20
2019-01-29T05:12:53.997Z,-0.30
2019-01-29T05:15:23.468Z,-0.30
2019-01-29T05:17:52.898Z,-0.30
2019-01-29T05:20:23.284Z,-0.30
2019-01-29T05:22:52.724Z,-0.30
2019-01-29T05:25:22.264Z,-0.20
2019-01-29T05:27:51.678Z,-0.30
2019-01-29T05:30:23.264Z,-0.20
2019-01-29T05:32:53.121Z,-0.30
2019-01-29T05:35:22.691Z,-0.20
2019-01-29T05:37:52.152Z,-0.30
2019-01-29T05:40:23.065Z,-0.30
2019-01-29T05:42:52.616Z,-0.30
2019-01-29T05:45:22.934Z,-0.30
2019-01-29T05:47:52.598Z,-0.30
2019-01-29T05:50:22.257Z,-0.30
2019-01-29T05:52:52.186Z,-0.10
2019-01-29T05:55:21.654Z,-0.20
2019-01-29T05:57:51.402Z,-0.20
2019-01-29T06:00:24.473Z,-0.20
2019-01-29T06:02:53.979Z,-0.10
2019-01-29T06:05:23.525Z,-0.20
2019-01-29T06:07:53.015Z,-0.10
2019-01-29T06:10:22.428Z,-0.20
2019-01-29T06:12:51.907Z,-0.10
2019-01-29T06:15:21.353Z,-0.10
2019-01-29T06:17:51.200Z,-0.10
2019-01-29T06:20:22.655Z,0.00
2019-01-29T06:22:52.237Z,0.00
2019-01-29T06:25:21.669Z,-0.10
2019-01-29T06:27:51.214Z,0.10
2019-01-29T06:30:21.233Z,0.10
2019-01-29T06:32:50.681Z,0.10
2019-01-29T06:35:20.388Z,0.00
2019-01-29T06:37:49.808Z,0.00
2019-01-29T06:40:24.214Z,0.10
2019-01-29T06:42:53.720Z,0.00
2019-01-29T06:45:23.351Z,0.10
2019-01-29T06:47:52.975Z,0.10
2019-01-29T06:50:24.177Z,0.20
2019-01-29T06:52:53.773Z,0.20
2019-01-29T06:55:23.440Z,0.20
2019-01-29T06:57:55.406Z,0.30
2019-01-29T07:00:27.464Z,0.30
2019-01-29T07:02:58.019Z,0.30
2019-01-29T07:05:27.739Z,0.30
2019-01-29T07:07:57.209Z,0.30
2019-01-29T07:10:27.082Z,0.30
2019-01-29T07:12:56.553Z,0.30
2019-01-29T07:16:01.044Z,0.30
2019-01-29T07:18:52.256Z,0.40
2019-01-29T07:21:21.735Z,0.50
2019-01-29T07:23:51.173Z,0.50
2019-01-29T07:26:20.660Z,0.50
2019-01-29T07:28:50.145Z,0.50
2019-01-29T07:31:19.570Z,0.60
2019-01-29T07:33:49.074Z,0.60
2019-01-29T07:36:18.860Z,0.70
2019-01-29T07:38:48.356Z,0.70
2019-01-29T07:41:17.782Z,0.70
2019-01-29T07:43:47.328Z,0.70
2019-01-29T07:46:16.776Z,0.80
2019-01-29T07:48:46.248Z,1.00
2019-01-29T07:51:15.834Z,1.00
2019-01-29T07:53:45.304Z,1.00
2019-01-29T07:56:14.777Z,1.00
2019-01-29T07:58:44.588Z,1.20
2019-01-29T08:01:14.040Z,1.40
2019-01-29T08:03:43.459Z,1.70
2019-01-29T08:06:12.942Z,1.70
2019-01-29T08:08:42.385Z,1.70
2019-01-29T08:11:11.818Z,2.00
2019-01-29T08:13:41.276Z,2.00
2019-01-29T08:16:10.727Z,1.80
2019-01-29T08:18:40.202Z,1.60
2019-01-29T08:21:09.635Z,1.60
2019-01-29T08:23:39.055Z,1.60
2019-01-29T08:26:08.495Z,1.70
2019-01-29T08:28:37.933Z,1.60
2019-01-29T08:31:07.431Z,1.70
2019-01-29T08:33:36.988Z,1.50
2019-01-29T08:36:06.555Z,1.50
2019-01-29T08:38:36.017Z,1.50
2019-01-29T08:41:05.582Z,1.50
2019-01-29T08:43:35.050Z,1.50
2019-01-29T08:46:04.609Z,1.50
2019-01-29T08:48:34.084Z,1.50
2019-01-29T08:51:03.866Z,1.50
2019-01-29T08:53:33.281Z,1.60
2019-01-29T08:56:03.041Z,1.40
2019-01-29T08:58:32.635Z,1.50
2019-01-29T09:01:02.119Z,1.40
2019-01-29T09:03:31.537Z,1.40
2019-01-29T09:06:01.033Z,1.30
2019-01-29T09:08:30.522Z,1.30
2019-01-29T09:10:59.993Z,1.30
2019-01-29T09:13:29.409Z,1.40
2019-01-29T09:15:58.927Z,1.40
2019-01-29T09:18:28.503Z,1.40
2019-01-29T09:20:57.949Z,1.50
2019-01-29T09:23:27.491Z,1.50
2019-01-29T09:25:56.999Z,1.60
2019-01-29T09:28:26.409Z,1.70
2019-01-29T09:30:55.850Z,1.90
2019-01-29T09:33:25.341Z,2.10
2019-01-29T09:35:54.767Z,2.30
2019-01-29T09:38:24.187Z,2.50
2019-01-29T09:40:53.722Z,2.60
2019-01-29T09:43:23.241Z,2.60
2019-01-29T09:45:52.702Z,2.70
2019-01-29T09:48:22.135Z,2.80
2019-01-29T09:50:51.622Z,2.70
2019-01-29T09:53:21.036Z,2.90
2019-01-29T09:55:50.685Z,2.80
2019-01-29T09:58:20.169Z,2.90
2019-01-29T10:00:49.606Z,2.80
2019-01-29T10:03:19.029Z,3.80
2019-01-29T10:05:48.503Z,4.50
2019-01-29T10:08:17.948Z,4.20
2019-01-29T10:10:47.415Z,3.80
2019-01-29T10:13:17.109Z,3.50
2019-01-29T10:15:46.576Z,3.30
2019-01-29T10:18:18.742Z,3.30
2019-01-29T10:20:48.195Z,3.20
2019-01-29T10:23:17.688Z,3.70
2019-01-29T10:25:47.162Z,4.40
2019-01-29T10:28:16.648Z,4.70
2019-01-29T10:30:46.044Z,4.40
2019-01-29T10:33:15.816Z,4.40
2019-01-29T10:35:45.362Z,4.00
2019-01-29T10:38:15.038Z,3.70
2019-01-29T10:40:44.500Z,3.50
2019-01-29T10:43:13.917Z,3.30
2019-01-29T10:45:43.350Z,3.10
2019-01-29T10:48:12.822Z,3.00
2019-01-29T10:50:42.266Z,2.90
2019-01-29T10:53:11.725Z,3.00
2019-01-29T10:55:47.008Z,3.10
2019-01-29T10:58:12.366Z,3.10
2019-01-29T11:00:42.042Z,2.90
2019-01-29T11:03:12.360Z,2.90
2019-01-29T11:05:42.022Z,2.90
2019-01-29T11:08:11.549Z,2.90
2019-01-29T11:10:40.986Z,2.80
2019-01-29T11:13:10.466Z,2.70
2019-01-29T11:15:41.795Z,2.70
2019-01-29T11:18:15.604Z,2.70
2019-01-29T11:20:45.178Z,2.80
2019-01-29T11:23:14.758Z,2.80
2019-01-29T11:25:44.219Z,2.80
2019-01-29T11:28:13.673Z,2.60
2019-01-29T11:30:43.456Z,2.70
2019-01-29T11:33:13.117Z,2.70
2019-01-29T11:35:42.638Z,2.70
2019-01-29T11:38:12.249Z,2.80
2019-01-29T11:40:41.795Z,2.80
2019-01-29T11:43:11.431Z,2.80
2019-01-29T11:45:43.765Z,2.80
2019-01-29T11:48:14.709Z,2.80
2019-01-29T11:50:45.129Z,2.90
2019-01-29T11:53:14.636Z,2.90
2019-01-29T11:55:44.101Z,2.80
2019-01-29T11:58:13.575Z,2.80
2019-01-29T12:01:04.748Z,2.80
2019-01-29T12:03:34.223Z,2.90
2019-01-29T12:06:03.967Z,3.00
2019-01-29T12:08:33.599Z,3.00
2019-01-29T12:11:03.036Z,3.00
2019-01-29T12:13:32.535Z,3.00
2019-01-29T12:16:02.006Z,3.10
2019-01-29T12:18:31.486Z,3.10
2019-01-29T12:21:00.958Z,3.20
2019-01-29T12:23:30.472Z,3.10
2019-01-29T12:26:00.043Z,3.20
2019-01-29T12:28:29.557Z,3.10
2019-01-29T12:30:59.056Z,3.00
2019-01-29T12:33:28.611Z,3.00
2019-01-29T12:35:58.068Z,3.00
2019-01-29T12:38:27.615Z,3.00
2019-01-29T12:40:57.092Z,3.00
2019-01-29T12:43:26.674Z,3.00
2019-01-29T12:45:56.181Z,2.90
2019-01-29T12:48:25.682Z,2.90
2019-01-29T12:50:59.000Z,2.90
2019-01-29T12:53:39.548Z,2.90
2019-01-29T12:56:09.037Z,3.00
2019-01-29T12:58:38.580Z,2.90
2019-01-29T13:01:08.109Z,3.00
2019-01-29T13:03:37.528Z,3.00
2019-01-29T13:06:07.038Z,2.90
2019-01-29T13:08:36.468Z,3.00
2019-01-29T13:11:06.672Z,3.00
2019-01-29T13:13:36.234Z,3.00
2019-01-29T13:16:05.641Z,3.00
2019-01-29T13:18:35.148Z,2.90
2019-01-29T13:21:04.801Z,3.00
2019-01-29T13:23:34.306Z,3.00
2019-01-29T13:26:03.762Z,3.00
2019-01-29T13:28:33.250Z,2.90
2019-01-29T13:31:02.913Z,2.90
2019-01-29T13:33:32.346Z,2.90
2019-01-29T13:36:01.861Z,2.80
2019-01-29T13:38:31.363Z,2.80
2019-01-29T13:41:00.868Z,2.90
2019-01-29T13:43:30.329Z,2.80
2019-01-29T13:46:00.056Z,2.80
2019-01-29T13:48:29.601Z,2.80
2019-01-29T13:51:00.668Z,2.80
2019-01-29T13:53:30.167Z,2.70
2019-01-29T13:55:59.658Z,2.70
2019-01-29T13:58:29.080Z,2.70
2019-01-29T14:00:58.585Z,2.70
2019-01-29T14:03:28.019Z,2.60
2019-01-29T14:05:57.492Z,2.60
2019-01-29T14:08:26.989Z,2.60
2019-01-29T14:10:56.448Z,2.50
2019-01-29T14:13:25.882Z,2.60
2019-01-29T14:16:00.802Z,2.60
2019-01-29T14:18:32.269Z,2.60
2019-01-29T14:21:02.194Z,2.50
2019-01-29T14:23:31.734Z,2.50
2019-01-29T14:26:01.295Z,2.60
2019-01-29T14:28:30.765Z,2.60
2019-01-29T14:31:00.242Z,2.50
2019-01-29T14:33:29.741Z,2.50
2019-01-29T14:35:59.200Z,2.40
2019-01-29T14:39:00.222Z,2.50
2019-01-29T14:41:29.705Z,2.50
2019-01-29T14:44:00.792Z,2.50
2019-01-29T14:46:30.331Z,2.50
2019-01-29T14:48:59.685Z,2.50
2019-01-29T14:51:29.191Z,2.50
2019-01-29T14:53:58.649Z,2.50
2019-01-29T14:56:28.273Z,2.40
2019-01-29T14:58:57.813Z,2.40
2019-01-29T15:01:27.446Z,2.30
2019-01-29T15:03:57.002Z,2.40
2019-01-29T15:06:32.288Z,2.30
2019-01-29T15:08:57.792Z,2.30
2019-01-29T15:11:27.390Z,2.30
2019-01-29T15:13:56.966Z,2.30
2019-01-29T15:16:51.967Z,2.30
2019-01-29T15:19:23.827Z,2.30
2019-01-29T15:21:53.411Z,2.30
2019-01-29T15:24:23.021Z,2.30
2019-01-29T15:26:52.539Z,2.20
2019-01-29T15:29:21.960Z,2.30
2019-01-29T15:31:51.454Z,1.00
2019-01-29T15:34:20.850Z,2.20
2019-01-29T15:36:50.555Z,2.30
2019-01-29T15:39:20.256Z,2.30
2019-01-29T15:41:49.824Z,2.30
2019-01-29T15:44:19.372Z,2.20
2019-01-29T15:46:48.853Z,2.20
2019-01-29T15:49:18.638Z,2.20
2019-01-29T15:51:48.090Z,2.20
2019-01-29T15:54:17.546Z,2.10
2019-01-29T15:56:47.401Z,2.20
2019-01-29T15:59:16.886Z,2.10
2019-01-29T16:01:46.722Z,2.00
2019-01-29T16:04:16.233Z,2.00
2019-01-29T16:06:45.721Z,2.00
2019-01-29T16:09:15.290Z,2.00
2019-01-29T16:11:44.735Z,1.90
2019-01-29T16:14:14.187Z,1.90
2019-01-29T16:16:43.819Z,1.90
2019-01-29T16:19:13.512Z,1.90
2019-01-29T16:21:43.961Z,1.80
2019-01-29T16:24:13.624Z,1.80
2019-01-29T16:26:43.916Z,1.70
2019-01-29T16:29:13.371Z,1.70
2019-01-29T16:31:42.811Z,1.60
2019-01-29T16:34:12.500Z,1.60
2019-01-29T16:36:42.013Z,1.60
2019-01-29T16:39:11.490Z,1.60
2019-01-29T16:41:41.211Z,1.60
2019-01-29T16:44:10.675Z,1.50
2019-01-29T16:46:40.163Z,1.50
2019-01-29T16:49:09.792Z,1.50
2019-01-29T16:51:42.160Z,1.50
2019-01-29T16:54:10.465Z,1.50
2019-01-29T16:56:39.985Z,1.50
2019-01-29T16:59:09.440Z,1.60
2019-01-29T17:01:38.920Z,1.50
2019-01-29T17:04:08.382Z,1.50
2019-01-29T17:06:38.134Z,1.50
2019-01-29T17:09:12.167Z,1.40
2019-01-29T17:11:41.639Z,1.30
2019-01-29T17:14:11.190Z,1.30
2019-01-29T17:16:41.827Z,1.30
2019-01-29T17:19:11.367Z,1.30
2019-01-29T17:21:40.808Z,1.30
2019-01-29T17:24:10.593Z,1.20
2019-01-29T17:26:40.165Z,1.20
2019-01-29T17:29:10.032Z,1.20
2019-01-29T17:31:39.688Z,1.20
2019-01-29T17:34:09.361Z,1.20
2019-01-29T17:36:38.830Z,1.10
2019-01-29T17:39:09.598Z,1.20
2019-01-29T17:41:39.175Z,1.20
2019-01-29T17:44:11.159Z,1.20
2019-01-29T17:46:40.651Z,1.10
2019-01-29T17:49:10.260Z,1.10
2019-01-29T17:51:39.750Z,1.10
2019-01-29T17:54:09.258Z,1.10
2019-01-29T17:56:38.728Z,1.00
2019-01-29T17:59:08.600Z,1.10
2019-01-29T18:01:38.394Z,1.10
2019-01-29T18:04:08.132Z,1.10
2019-01-29T18:06:37.621Z,1.10
2019-01-29T18:09:11.438Z,1.10
2019-01-29T18:11:40.896Z,1.10
2019-01-29T18:14:10.566Z,1.10
2019-01-29T18:16:40.067Z,1.10
2019-01-29T18:19:09.530Z,1.00
2019-01-29T18:21:39.274Z,1.00
2019-01-29T18:24:08.824Z,1.10
2019-01-29T18:26:38.480Z,1.00
2019-01-29T18:29:07.980Z,1.80
2019-01-29T18:31:37.451Z,1.10
2019-01-29T18:34:06.987Z,1.00
2019-01-29T18:36:36.541Z,1.10
2019-01-29T18:39:08.672Z,1.00
2019-01-29T18:41:38.159Z,1.00
2019-01-29T18:44:08.322Z,1.00
2019-01-29T18:46:37.784Z,1.00
2019-01-29T18:49:07.524Z,1.00
2019-01-29T18:51:36.978Z,1.00
2019-01-29T18:54:06.920Z,1.00
2019-01-29T18:56:36.413Z,1.00
2019-01-29T18:59:05.841Z,1.00
2019-01-29T19:01:35.517Z,1.00
2019-01-29T19:04:05.075Z,1.00
2019-01-29T19:06:34.739Z,1.00
2019-01-29T19:09:06.358Z,1.00
2019-01-29T19:11:35.847Z,1.00
2019-01-29T19:14:05.537Z,0.90
2019-01-29T19:16:34.988Z,0.90
2019-01-29T19:19:04.774Z,0.90
2019-01-29T19:21:34.337Z,0.90
2019-01-29T19:24:04.195Z,0.90
2019-01-29T19:26:34.336Z,0.80
2019-01-29T19:29:06.410Z,0.90
2019-01-29T19:31:34.997Z,0.80
2019-01-29T19:34:04.458Z,0.90
2019-01-29T19:36:34.284Z,0.90
2019-01-29T19:39:05.965Z,0.90
2019-01-29T19:41:35.675Z,0.90
2019-01-29T19:44:05.174Z,0.80
2019-01-29T19:46:34.609Z,0.90
2019-01-29T19:49:04.700Z,0.80
2019-01-29T19:51:34.128Z,0.80
2019-01-29T19:54:03.852Z,0.80
2019-01-29T19:56:33.336Z,0.80
2019-01-29T19:59:02.975Z,0.80
2019-01-29T20:01:35.215Z,0.80
2019-01-29T20:04:04.986Z,0.70
2019-01-29T20:06:36.132Z,0.70
2019-01-29T20:09:11.392Z,0.70
2019-01-29T20:11:41.187Z,0.80
2019-01-29T20:14:10.629Z,0.70
2019-01-29T20:16:40.539Z,0.80
2019-01-29T20:19:10.033Z,0.70
2019-01-29T20:21:39.643Z,0.80
2019-01-29T20:24:09.088Z,0.70
2019-01-29T20:26:38.673Z,0.70
2019-01-29T20:29:08.313Z,0.70
2019-01-29T20:31:38.014Z,0.70
2019-01-29T20:34:07.499Z,0.60
2019-01-29T20:36:37.184Z,0.60
2019-01-29T20:39:09.261Z,0.70
2019-01-29T20:41:38.708Z,0.70
2019-01-29T20:44:08.193Z,0.60
2019-01-29T20:46:38.115Z,0.60
2019-01-29T20:49:07.677Z,0.70
2019-01-29T20:51:37.345Z,0.60
2019-01-29T20:54:06.944Z,0.60
2019-01-29T20:56:36.387Z,0.70
2019-01-29T20:59:06.025Z,0.70
2019-01-29T21:01:35.555Z,0.70
2019-01-29T21:04:05.446Z,0.80
2019-01-29T21:06:34.895Z,0.80
2019-01-29T21:09:08.020Z,0.80
2019-01-29T21:11:37.537Z,0.80
2019-01-29T21:14:07.186Z,0.80
2019-01-29T21:16:36.703Z,0.80
2019-01-29T21:19:06.899Z,0.80
2019-01-29T21:21:36.558Z,0.80
2019-01-29T21:24:06.198Z,0.70
2019-01-29T21:26:35.735Z,0.70
2019-01-29T21:29:05.539Z,0.80
2019-01-29T21:31:34.988Z,0.70
2019-01-29T21:34:04.935Z,0.80
2019-01-29T21:36:34.491Z,0.70
2019-01-29T21:39:05.923Z,0.80
2019-01-29T21:41:35.770Z,0.80
2019-01-29T21:44:05.569Z,0.70
2019-01-29T21:46:34.983Z,0.70
2019-01-29T21:49:04.647Z,0.70
2019-01-29T21:51:34.172Z,0.70
2019-01-29T21:54:03.582Z,0.70
2019-01-29T21:56:33.056Z,0.70
2019-01-29T21:59:12.912Z,0.60
2019-01-29T22:01:34.100Z,0.50
2019-01-29T22:04:03.645Z,0.50
2019-01-29T22:06:33.365Z,0.50
2019-01-29T22:09:03.728Z,0.50
2019-01-29T22:11:33.252Z,0.40
2019-01-29T22:14:02.883Z,0.40
2019-01-29T22:16:32.429Z,0.40
2019-01-29T22:19:01.931Z,0.30
2019-01-29T22:21:31.727Z,0.40
2019-01-29T22:24:01.213Z,0.40
2019-01-29T22:26:30.763Z,0.40
2019-01-29T22:29:00.285Z,0.40
2019-01-29T22:31:29.779Z,0.40
2019-01-29T22:33:59.213Z,0.30
2019-01-29T22:36:29.011Z,0.40
2019-01-29T22:38:58.885Z,0.30
2019-01-29T22:41:28.441Z,0.30
2019-01-29T22:43:57.897Z,0.30
2019-01-29T22:46:27.406Z,0.30
2019-01-29T22:48:57.046Z,0.30
2019-01-29T22:51:26.467Z,0.30
2019-01-29T22:53:55.921Z,0.20
2019-01-29T22:56:25.732Z,0.20
2019-01-29T22:58:55.251Z,0.20
2019-01-29T23:01:32.799Z,0.20
2019-01-29T23:04:19.936Z,0.20
2019-01-29T23:07:16.187Z,0.10
2019-01-29T23:09:45.704Z,0.20
2019-01-29T23:12:15.139Z,0.20
2019-01-29T23:14:44.934Z,0.10
2019-01-29T23:17:14.367Z,0.10
2019-01-29T23:19:43.833Z,0.00
2019-01-29T23:22:13.557Z,-0.10
2019-01-29T23:24:42.979Z,-0.10
2019-01-29T23:27:12.521Z,-0.10
2019-01-29T23:29:43.595Z,0.00
2019-01-29T23:32:13.396Z,0.00
2019-01-29T23:34:42.836Z,-0.10
2019-01-29T23:37:12.568Z,-0.20
2019-01-29T23:39:42.106Z,-0.30
2019-01-29T23:42:11.582Z,-0.30
2019-01-29T23:44:41.645Z,-0.30
2019-01-29T23:47:11.386Z,-0.30
2019-01-29T23:49:40.886Z,-0.30
2019-01-29T23:52:10.398Z,-0.20
2019-01-29T23:54:40.241Z,-0.20
2019-01-29T23:57:09.654Z,-0.10
2019-01-29T23:59:39.656Z,-0.10
